Time;durP1;ratioP1;P1;durP2;ratioP2;P2;SDS_P1;SDS_P2;PMS_P1;PMS_P2;Temp;Humidity;BMP_temperature;BMP_pressure;BME280_temperature;BME280_humidity;BME280_pressure;Samples;Min_cycle;Max_cycle;Signal;HPM_P1;HPM_P2
2022/04/08 00:01:36;;;;;;;;;;;13.70;51.40;;;;;;6126021;23;20325;-80
2022/04/08 00:04:02;;;;;;;;;;;13.10;54.90;;;;;;6123851;23;20261;-81
2022/04/08 00:06:29;;;;;;;;;;;12.30;57.60;;;;;;6124088;23;19968;-79
2022/04/08 00:08:56;;;;;;;;;;;12.10;58.20;;;;;;6123833;23;19940;-79
2022/04/08 00:11:23;;;;;;;;;;;12.00;57.90;;;;;;6123567;23;19959;-79
2022/04/08 00:13:52;;;;;;;;;;;12.10;57.70;;;;;;6124883;23;20385;-80
2022/04/08 00:16:20;;;;;;;;;;;12.40;55.50;;;;;;6122348;23;19916;-80
2022/04/08 00:18:47;;;;;;;;;;;12.90;54.30;;;;;;6124604;23;19939;-80
2022/04/08 00:21:13;;;;;;;;;;;13.20;53.90;;;;;;6123531;23;19917;-80
2022/04/08 00:23:42;;;;;;;;;;;13.20;53.40;;;;;;6124376;23;20365;-80
2022/04/08 00:26:09;;;;;;;;;;;13.10;53.60;;;;;;6122647;23;19921;-80
2022/04/08 00:28:36;;;;;;;;;;;13.00;54.30;;;;;;6123773;23;19925;-80
2022/04/08 00:31:04;;;;;;;;;;;13.00;54.20;;;;;;6124229;23;19925;-78
2022/04/08 00:33:32;;;;;;;;;;;12.90;54.80;;;;;;6124974;23;19980;-80
2022/04/08 00:35:59;;;;;;;;;;;12.80;54.90;;;;;;6123743;23;19917;-80
2022/04/08 00:38:26;;;;;;;;;;;12.70;55.70;;;;;;6122895;23;19924;-80
2022/04/08 00:40:53;;;;;;;;;;;12.50;56.80;;;;;;6123572;23;20357;-78
2022/04/08 00:43:30;;;;;;;;;;;12.40;57.00;;;;;;6124048;23;19917;-80
2022/04/08 00:45:57;;;;;;;;;;;12.20;57.20;;;;;;6123715;23;19968;-80
2022/04/08 00:48:24;;;;;;;;;;;12.20;57.80;;;;;;6123169;23;20361;-78
2022/04/08 00:50:50;;;;;;;;;;;12.30;56.80;;;;;;6124388;23;19921;-80
2022/04/08 00:53:17;;;;;;;;;;;12.40;56.70;;;;;;6122562;23;19920;-80
2022/04/08 00:55:44;;;;;;;;;;;12.40;56.80;;;;;;6124454;23;19928;-80
2022/04/08 00:58:11;;;;;;;;;;;12.30;57.50;;;;;;6123264;23;19992;-77
2022/04/08 01:00:38;;;;;;;;;;;12.10;58.20;;;;;;6125571;23;19921;-80
2022/04/08 01:03:05;;;;;;;;;;;12.20;54.90;;;;;;6123860;23;19921;-77
2022/04/08 01:05:32;;;;;;;;;;;13.70;48.80;;;;;;6126317;23;19968;-77
2022/04/08 01:07:59;;;;;;;;;;;14.70;46.40;;;;;;6125635;23;19923;-79
2022/04/08 01:10:26;;;;;;;;;;;15.00;45.30;;;;;;6123766;23;19976;-77
2022/04/08 01:12:53;;;;;;;;;;;15.30;44.60;;;;;;6123641;23;20342;-80
2022/04/08 01:15:21;;;;;;;;;;;15.00;47.50;;;;;;6124111;23;19917;-80
2022/04/08 01:17:48;;;;;;;;;;;14.30;50.10;;;;;;6124113;23;19968;-77
2022/04/08 01:20:14;;;;;;;;;;;13.40;52.40;;;;;;6123793;23;19924;-80
2022/04/08 01:22:41;;;;;;;;;;;12.90;53.70;;;;;;6123108;23;19917;-79
2022/04/08 01:25:10;;;;;;;;;;;12.80;54.20;;;;;;6122730;23;19921;-80
2022/04/08 01:27:37;;;;;;;;;;;12.60;54.70;;;;;;6124380;23;19923;-80
2022/04/08 01:30:05;;;;;;;;;;;12.40;55.60;;;;;;6124618;23;19988;-78
2022/04/08 01:32:32;;;;;;;;;;;12.30;56.30;;;;;;6124258;23;19945;-80
2022/04/08 01:34:58;;;;;;;;;;;12.10;56.90;;;;;;6122574;23;19916;-79
2022/04/08 01:37:25;;;;;;;;;;;12.00;56.70;;;;;;6122668;23;19941;-80
2022/04/08 01:39:52;;;;;;;;;;;12.00;57.00;;;;;;6122950;23;19924;-80
2022/04/08 01:42:24;;;;;;;;;;;12.00;57.70;;;;;;6122775;23;20342;-77
2022/04/08 01:44:52;;;;;;;;;;;11.70;58.70;;;;;;6122903;23;19959;-80
2022/04/08 01:47:19;;;;;;;;;;;11.60;58.70;;;;;;6122356;23;20345;-80
2022/04/08 01:49:46;;;;;;;;;;;11.70;58.50;;;;;;6122971;23;20381;-78
2022/04/08 01:52:13;;;;;;;;;;;11.80;58.00;;;;;;6122073;23;19920;-80
2022/04/08 01:54:40;;;;;;;;;;;11.90;57.50;;;;;;6122991;23;19917;-80
2022/04/08 01:57:06;;;;;;;;;;;11.80;58.30;;;;;;6122956;23;20330;-81
2022/04/08 01:59:33;;;;;;;;;;;11.80;58.60;;;;;;6122681;23;19917;-80
2022/04/08 02:02:00;;;;;;;;;;;11.70;58.70;;;;;;6123200;23;19917;-80
2022/04/08 02:04:27;;;;;;;;;;;11.60;58.80;;;;;;6122613;23;19944;-77
2022/04/08 02:06:54;;;;;;;;;;;11.70;58.60;;;;;;6124175;23;19925;-80
2022/04/08 02:09:21;;;;;;;;;;;11.70;58.70;;;;;;6122144;23;20149;-80
2022/04/08 02:11:47;;;;;;;;;;;11.80;58.50;;;;;;6123623;23;19917;-80
2022/04/08 02:14:15;;;;;;;;;;;11.70;59.70;;;;;;6122853;23;19917;-80
2022/04/08 02:16:41;;;;;;;;;;;11.10;60.80;;;;;;6124199;23;19917;-78
2022/04/08 02:19:08;;;;;;;;;;;11.30;59.60;;;;;;6123913;23;20356;-80
2022/04/08 02:21:36;;;;;;;;;;;11.50;59.00;;;;;;6123785;23;19917;-78
2022/04/08 02:24:03;;;;;;;;;;;11.50;59.50;;;;;;6125081;23;20386;-79
2022/04/08 02:26:30;;;;;;;;;;;11.40;60.00;;;;;;6124768;23;19917;-80
2022/04/08 02:28:58;;;;;;;;;;;11.60;58.90;;;;;;6127795;23;19921;-80
2022/04/08 02:31:25;;;;;;;;;;;11.60;58.70;;;;;;6125038;23;19917;-80
2022/04/08 02:33:51;;;;;;;;;;;11.60;58.70;;;;;;6126050;23;19993;-80
2022/04/08 02:36:19;;;;;;;;;;;11.50;59.50;;;;;;6124586;23;19921;-80
2022/04/08 02:38:45;;;;;;;;;;;11.30;60.20;;;;;;6114626;23;19917;-79
2022/04/08 02:41:12;;;;;;;;;;;10.90;61.20;;;;;;6126947;23;19976;-80
2022/04/08 02:43:39;;;;;;;;;;;10.80;61.70;;;;;;6125965;23;19951;-80
2022/04/08 02:46:06;;;;;;;;;;;10.60;62.60;;;;;;6126884;23;19917;-80
2022/04/08 02:48:33;;;;;;;;;;;10.50;63.40;;;;;;6124149;23;19917;-81
2022/04/08 02:50:59;;;;;;;;;;;10.30;63.80;;;;;;6126531;23;19920;-80
2022/04/08 02:53:26;;;;;;;;;;;10.30;63.70;;;;;;6113467;23;19960;-80
2022/04/08 02:55:53;;;;;;;;;;;10.30;63.20;;;;;;6125258;23;19924;-80
2022/04/08 02:58:20;;;;;;;;;;;10.30;65.10;;;;;;6124972;23;20262;-80
2022/04/08 03:00:46;;;;;;;;;;;10.40;63.40;;;;;;6126345;23;19952;-78
2022/04/08 03:03:13;;;;;;;;;;;10.40;63.30;;;;;;6126785;23;19924;-80
2022/04/08 03:05:40;;;;;;;;;;;10.40;63.40;;;;;;6124365;23;20378;-81
2022/04/08 03:08:07;;;;;;;;;;;10.30;63.80;;;;;;6123326;23;19921;-80
2022/04/08 03:10:33;;;;;;;;;;;10.40;63.20;;;;;;6126740;23;20721;-77
2022/04/08 03:13:00;;;;;;;;;;;10.20;64.40;;;;;;6128713;23;19916;-79
2022/04/08 03:15:27;;;;;;;;;;;10.10;64.80;;;;;;6125506;23;19956;-80
2022/04/08 03:17:54;;;;;;;;;;;10.00;65.30;;;;;;6126154;23;19983;-79
2022/04/08 03:20:21;;;;;;;;;;;9.90;65.80;;;;;;6127737;23;20338;-77
2022/04/08 03:22:47;;;;;;;;;;;9.90;65.80;;;;;;6125805;23;19972;-81
2022/04/08 03:25:14;;;;;;;;;;;9.90;65.50;;;;;;6125576;23;19917;-80
2022/04/08 03:27:41;;;;;;;;;;;9.90;65.70;;;;;;6124266;23;20286;-81
2022/04/08 03:30:08;;;;;;;;;;;9.90;65.40;;;;;;6126492;23;19917;-80
2022/04/08 03:32:35;;;;;;;;;;;9.80;66.20;;;;;;6125279;23;19921;-81
2022/04/08 03:35:02;;;;;;;;;;;9.80;66.00;;;;;;6126363;23;19917;-80
2022/04/08 03:37:29;;;;;;;;;;;9.80;65.50;;;;;;6125178;23;20495;-80
2022/04/08 03:39:56;;;;;;;;;;;9.80;65.50;;;;;;6126112;23;19944;-80
2022/04/08 03:42:22;;;;;;;;;;;9.70;66.60;;;;;;6125829;23;20397;-80
2022/04/08 03:44:51;;;;;;;;;;;9.60;66.70;;;;;;6124186;23;20342;-80
2022/04/08 03:47:19;;;;;;;;;;;9.60;67.30;;;;;;6124809;23;19917;-80
2022/04/08 03:49:46;;;;;;;;;;;9.60;67.20;;;;;;6124180;23;19927;-80
2022/04/08 03:52:13;;;;;;;;;;;9.50;67.40;;;;;;6126185;23;19916;-80
2022/04/08 03:54:40;;;;;;;;;;;9.50;67.30;;;;;;6124976;23;19920;-80
2022/04/08 03:57:06;;;;;;;;;;;9.50;67.20;;;;;;6125465;23;19988;-80
2022/04/08 03:59:39;;;;;;;;;;;9.40;68.40;;;;;;6125691;23;20000;-77
2022/04/08 04:02:05;;;;;;;;;;;9.40;67.90;;;;;;6125216;23;19921;-78
2022/04/08 04:04:33;;;;;;;;;;;9.40;67.70;;;;;;6123610;23;20326;-80
2022/04/08 04:06:59;;;;;;;;;;;9.30;68.60;;;;;;6125134;23;19921;-79
2022/04/08 04:09:27;;;;;;;;;;;9.70;67.40;;;;;;6124301;23;19917;-80
2022/04/08 04:11:53;;;;;;;;;;;9.70;67.30;;;;;;6124447;23;19924;-78
2022/04/08 04:14:20;;;;;;;;;;;9.80;66.70;;;;;;6124721;23;19916;-78
2022/04/08 04:16:47;;;;;;;;;;;10.00;66.30;;;;;;6122747;23;19917;-79
2022/04/08 04:19:14;;;;;;;;;;;10.00;66.50;;;;;;6148336;23;19928;-80
2022/04/08 04:21:41;;;;;;;;;;;10.30;65.70;;;;;;6124205;23;19924;-80
2022/04/08 04:24:07;;;;;;;;;;;10.30;65.70;;;;;;6123983;23;19921;-77
2022/04/08 04:26:34;;;;;;;;;;;10.40;65.60;;;;;;6123883;23;19972;-78
2022/04/08 04:29:01;;;;;;;;;;;10.40;65.20;;;;;;6124720;23;19917;-80
2022/04/08 04:31:28;;;;;;;;;;;10.30;65.40;;;;;;6122375;23;19923;-80
2022/04/08 04:33:54;;;;;;;;;;;10.20;65.60;;;;;;6123757;23;19924;-79
2022/04/08 04:36:21;;;;;;;;;;;10.10;65.90;;;;;;6124373;23;19917;-80
2022/04/08 04:38:48;;;;;;;;;;;10.10;66.20;;;;;;6124713;23;19917;-80
2022/04/08 04:41:15;;;;;;;;;;;10.00;66.90;;;;;;6123436;23;19921;-80
2022/04/08 04:43:42;;;;;;;;;;;10.00;66.90;;;;;;6123658;23;19917;-80
2022/04/08 04:46:08;;;;;;;;;;;10.00;67.90;;;;;;6124396;23;19917;-80
2022/04/08 04:48:35;;;;;;;;;;;10.00;67.80;;;;;;6123973;23;19917;-80
2022/04/08 04:51:02;;;;;;;;;;;10.00;68.00;;;;;;6123900;23;19984;-80
2022/04/08 04:53:29;;;;;;;;;;;10.00;67.60;;;;;;6123555;23;19972;-80
2022/04/08 04:55:56;;;;;;;;;;;9.80;68.60;;;;;;6123829;23;19917;-78
2022/04/08 04:58:23;;;;;;;;;;;9.80;68.50;;;;;;6124172;23;19941;-79
2022/04/08 05:00:49;;;;;;;;;;;9.70;68.50;;;;;;6123897;23;20397;-79
2022/04/08 05:03:16;;;;;;;;;;;9.70;69.80;;;;;;6123678;23;19953;-79
2022/04/08 05:05:43;;;;;;;;;;;9.70;68.90;;;;;;6123253;23;20285;-78
2022/04/08 05:08:10;;;;;;;;;;;9.60;70.10;;;;;;6124157;23;19939;-78
2022/04/08 05:10:36;;;;;;;;;;;9.50;70.80;;;;;;6123021;23;19917;-78
2022/04/08 05:13:03;;;;;;;;;;;9.50;71.90;;;;;;6123790;23;19917;-78
2022/04/08 05:15:38;;;;;;;;;;;9.50;70.90;;;;;;6123337;23;20286;-80
2022/04/08 05:18:05;;;;;;;;;;;9.50;70.60;;;;;;6125057;23;20073;-80
2022/04/08 05:20:32;;;;;;;;;;;9.50;72.10;;;;;;6122539;23;19916;-79
2022/04/08 05:22:59;;;;;;;;;;;9.60;72.20;;;;;;6122346;23;19948;-79
2022/04/08 05:25:25;;;;;;;;;;;9.70;72.50;;;;;;6122878;23;19928;-80
2022/04/08 05:27:54;;;;;;;;;;;9.70;72.20;;;;;;6122396;23;20449;-79
2022/04/08 05:30:21;;;;;;;;;;;9.60;72.40;;;;;;6122457;23;20231;-80
2022/04/08 05:32:48;;;;;;;;;;;9.70;71.90;;;;;;6122467;23;19920;-80
2022/04/08 05:35:18;;;;;;;;;;;9.60;72.50;;;;;;6125034;23;19917;-79
2022/04/08 05:37:46;;;;;;;;;;;9.60;74.60;;;;;;6121787;23;19930;-79
2022/04/08 05:40:14;;;;;;;;;;;9.70;74.90;;;;;;6123359;23;20018;-79
2022/04/08 05:42:42;;;;;;;;;;;9.80;74.60;;;;;;6121874;23;19917;-79
2022/04/08 05:45:13;;;;;;;;;;;9.90;73.60;;;;;;6123100;23;19972;-78
2022/04/08 05:47:40;;;;;;;;;;;9.90;73.30;;;;;;6122777;23;19984;-79
2022/04/08 05:50:07;;;;;;;;;;;9.80;73.90;;;;;;6123236;23;20393;-79
2022/04/08 05:52:34;;;;;;;;;;;9.80;73.40;;;;;;6123628;23;20329;-79
2022/04/08 05:55:00;;;;;;;;;;;9.80;74.00;;;;;;6124325;23;19917;-79
2022/04/08 05:57:27;;;;;;;;;;;9.70;75.70;;;;;;6126269;23;19916;-79
2022/04/08 06:00:00;;;;;;;;;;;9.70;76.20;;;;;;6124253;23;19945;-79
2022/04/08 06:02:27;;;;;;;;;;;9.80;76.30;;;;;;6125964;23;20322;-80
2022/04/08 06:04:53;;;;;;;;;;;9.80;75.00;;;;;;6124221;23;20724;-79
2022/04/08 06:07:22;;;;;;;;;;;9.90;76.30;;;;;;6125315;23;19964;-79
2022/04/08 06:09:49;;;;;;;;;;;10.00;76.40;;;;;;6124519;23;19925;-79
2022/04/08 06:12:15;;;;;;;;;;;10.00;75.40;;;;;;6124870;23;19971;-79
2022/04/08 06:14:42;;;;;;;;;;;10.10;76.60;;;;;;6124662;23;20353;-78
2022/04/08 06:17:09;;;;;;;;;;;10.20;76.10;;;;;;6125982;23;19928;-79
2022/04/08 06:19:36;;;;;;;;;;;10.20;76.20;;;;;;6124028;23;20351;-79
2022/04/08 06:22:02;;;;;;;;;;;10.30;75.50;;;;;;6125768;23;20385;-78
2022/04/08 06:24:29;;;;;;;;;;;10.40;75.30;;;;;;6126793;23;19925;-79
2022/04/08 06:26:56;;;;;;;;;;;10.50;74.70;;;;;;6124183;23;19971;-80
2022/04/08 06:29:23;;;;;;;;;;;10.50;74.60;;;;;;6125841;23;20339;-78
2022/04/08 06:31:49;;;;;;;;;;;10.50;74.70;;;;;;6124865;23;19968;-80
2022/04/08 06:34:17;;;;;;;;;;;10.60;74.30;;;;;;6124551;23;19916;-78
2022/04/08 06:36:43;;;;;;;;;;;10.60;74.30;;;;;;6124388;23;19968;-80
2022/04/08 06:39:10;;;;;;;;;;;10.70;74.50;;;;;;6126628;23;19917;-78
2022/04/08 06:41:37;;;;;;;;;;;10.80;74.30;;;;;;6125115;23;19917;-78
2022/04/08 06:44:04;;;;;;;;;;;11.00;73.20;;;;;;6125338;23;20323;-80
2022/04/08 06:46:30;;;;;;;;;;;11.00;72.90;;;;;;6124912;23;19917;-78
2022/04/08 06:49:02;;;;;;;;;;;11.10;72.70;;;;;;6126133;23;19916;-81
2022/04/08 06:51:30;;;;;;;;;;;11.10;73.10;;;;;;6125181;23;19921;-80
2022/04/08 06:53:57;;;;;;;;;;;11.20;72.60;;;;;;6123156;23;19921;-81
2022/04/08 06:56:24;;;;;;;;;;;11.40;73.00;;;;;;6126415;23;20393;-80
2022/04/08 06:58:51;;;;;;;;;;;11.50;71.60;;;;;;6123636;23;19917;-82
2022/04/08 07:01:17;;;;;;;;;;;11.60;71.10;;;;;;6121623;23;19921;-80
2022/04/08 07:03:44;;;;;;;;;;;11.70;71.20;;;;;;6124178;23;19948;-80
2022/04/08 07:06:11;;;;;;;;;;;11.70;70.80;;;;;;6126807;23;20356;-82
2022/04/08 07:08:38;;;;;;;;;;;11.80;70.70;;;;;;6147785;23;19917;-79
2022/04/08 07:11:06;;;;;;;;;;;11.80;70.30;;;;;;6124312;23;20413;-81
2022/04/08 07:13:37;;;;;;;;;;;11.80;70.80;;;;;;6123707;23;19925;-80
2022/04/08 07:16:04;;;;;;;;;;;11.80;71.10;;;;;;6124146;23;19916;-81
2022/04/08 07:18:31;;;;;;;;;;;11.90;70.20;;;;;;6126819;23;19921;-79
2022/04/08 07:20:58;;;;;;;;;;;12.00;70.00;;;;;;6126092;23;19920;-80
2022/04/08 07:23:25;;;;;;;;;;;12.20;69.50;;;;;;6127967;23;19920;-79
2022/04/08 07:25:51;;;;;;;;;;;12.40;70.50;;;;;;6124973;23;19917;-80
2022/04/08 07:28:18;;;;;;;;;;;12.60;69.00;;;;;;6124631;23;19924;-81
2022/04/08 07:30:48;;;;;;;;;;;12.50;67.70;;;;;;6126605;23;20389;-80
2022/04/08 07:33:14;;;;;;;;;;;12.60;68.00;;;;;;6125381;23;19923;-81
2022/04/08 07:35:41;;;;;;;;;;;12.70;67.30;;;;;;6126142;23;19917;-80
2022/04/08 07:38:12;;;;;;;;;;;12.90;66.90;;;;;;6127525;23;19943;-80
2022/04/08 07:40:39;;;;;;;;;;;13.20;65.50;;;;;;6127543;23;20262;-82
2022/04/08 07:43:06;;;;;;;;;;;13.30;64.80;;;;;;6126997;23;19983;-79
2022/04/08 07:45:33;;;;;;;;;;;13.50;64.50;;;;;;6124796;23;19983;-81
2022/04/08 07:48:00;;;;;;;;;;;13.60;64.00;;;;;;6125350;23;19996;-80
2022/04/08 07:50:27;;;;;;;;;;;13.80;63.80;;;;;;6127068;23;19920;-80
2022/04/08 07:52:54;;;;;;;;;;;14.00;63.60;;;;;;6124860;23;19920;-80
2022/04/08 07:55:23;;;;;;;;;;;14.10;62.40;;;;;;6128107;23;19921;-81
2022/04/08 07:57:51;;;;;;;;;;;14.30;62.20;;;;;;6124990;23;19978;-80
2022/04/08 08:00:27;;;;;;;;;;;14.30;62.20;;;;;;6125129;23;19984;-80
2022/04/08 08:02:54;;;;;;;;;;;14.20;62.80;;;;;;6126249;23;19966;-78
2022/04/08 08:05:21;;;;;;;;;;;14.30;62.40;;;;;;6129430;23;19917;-78
2022/04/08 08:07:51;;;;;;;;;;;14.40;63.30;;;;;;6127476;23;19944;-81
2022/04/08 08:10:19;;;;;;;;;;;14.50;64.20;;;;;;6134957;23;19932;-80
2022/04/08 08:12:47;;;;;;;;;;;14.90;61.60;;;;;;6126038;23;19995;-80
2022/04/08 08:15:15;;;;;;;;;;;15.00;60.50;;;;;;6125605;23;19976;-78
2022/04/08 08:17:45;;;;;;;;;;;15.20;59.50;;;;;;6128940;23;19927;-82
2022/04/08 08:20:13;;;;;;;;;;;15.30;59.90;;;;;;6126465;23;19917;-80
2022/04/08 08:22:41;;;;;;;;;;;15.50;59.50;;;;;;6125695;23;19972;-81
2022/04/08 08:25:09;;;;;;;;;;;15.80;57.70;;;;;;6129244;23;19991;-81
2022/04/08 08:27:36;;;;;;;;;;;15.90;56.90;;;;;;6127398;23;19968;-78
2022/04/08 08:30:04;;;;;;;;;;;16.10;54.80;;;;;;6127447;23;19921;-80
2022/04/08 08:32:31;;;;;;;;;;;16.20;54.80;;;;;;6128553;23;20025;-80
2022/04/08 08:34:57;;;;;;;;;;;16.40;53.90;;;;;;6132587;23;19968;-80
2022/04/08 08:37:24;;;;;;;;;;;16.60;53.60;;;;;;6126538;23;20018;-82
2022/04/08 08:39:55;;;;;;;;;;;16.90;52.50;;;;;;6125691;23;19920;-82
2022/04/08 08:42:23;;;;;;;;;;;17.10;52.60;;;;;;6126849;23;20330;-82
2022/04/08 08:44:50;;;;;;;;;;;17.20;53.40;;;;;;6129760;23;19917;-80
2022/04/08 08:47:17;;;;;;;;;;;17.20;52.20;;;;;;6129814;23;19928;-78
2022/04/08 08:49:49;;;;;;;;;;;17.40;52.30;;;;;;6126708;23;19920;-80
2022/04/08 08:52:21;;;;;;;;;;;17.50;52.00;;;;;;6129167;23;20518;-80
2022/04/08 08:54:48;;;;;;;;;;;17.50;51.70;;;;;;6131428;23;19917;-81
2022/04/08 08:57:19;;;;;;;;;;;17.50;51.90;;;;;;6128798;23;19940;-81
2022/04/08 08:59:46;;;;;;;;;;;17.60;51.90;;;;;;6128200;23;20499;-82
2022/04/08 09:02:20;;;;;;;;;;;17.70;51.80;;;;;;6125163;23;19920;-80
2022/04/08 09:04:50;;;;;;;;;;;17.60;50.80;;;;;;6125669;23;19940;-79
2022/04/08 09:07:24;;;;;;;;;;;17.50;51.80;;;;;;6128236;23;19944;-78
2022/04/08 09:09:54;;;;;;;;;;;17.70;52.00;;;;;;6125757;23;20000;-81
2022/04/08 09:12:25;;;;;;;;;;;17.80;52.30;;;;;;6127121;23;20384;-78
2022/04/08 09:14:55;;;;;;;;;;;18.00;52.10;;;;;;6124281;23;19924;-78
2022/04/08 09:17:23;;;;;;;;;;;18.10;51.80;;;;;;6150322;23;19920;-78
2022/04/08 09:19:54;;;;;;;;;;;17.80;51.20;;;;;;6128350;23;20290;-79
2022/04/08 09:22:24;;;;;;;;;;;17.80;52.50;;;;;;6123203;23;19917;-82
2022/04/08 09:24:51;;;;;;;;;;;18.00;50.70;;;;;;6124748;23;19923;-78
2022/04/08 09:27:18;;;;;;;;;;;18.10;51.90;;;;;;6123721;23;19923;-81
2022/04/08 09:29:45;;;;;;;;;;;18.40;51.00;;;;;;6126616;23;20338;-81
2022/04/08 09:32:32;;;;;;;;;;;18.40;49.40;;;;;;6124596;23;19944;-78
2022/04/08 09:35:01;;;;;;;;;;;18.40;49.50;;;;;;6126033;23;19933;-81
2022/04/08 09:37:28;;;;;;;;;;;18.70;51.20;;;;;;6145346;23;19926;-82
2022/04/08 09:39:57;;;;;;;;;;;18.80;49.30;;;;;;6126260;23;20338;-82
2022/04/08 09:42:30;;;;;;;;;;;19.00;50.50;;;;;;6130899;23;19920;-82
2022/04/08 09:44:56;;;;;;;;;;;19.20;50.00;;;;;;6124756;23;19917;-82
2022/04/08 09:47:23;;;;;;;;;;;19.20;48.00;;;;;;6124934;23;19916;-78
2022/04/08 09:49:50;;;;;;;5.68;3.22;;;19.30;49.10;;;;;;6124888;23;19917;-82
2022/04/08 09:52:19;;;;;;;5.22;3.28;;;19.40;48.70;;;;;;6123796;23;20034;-80
2022/04/08 09:54:47;;;;;;;7.75;4.70;;;19.20;46.50;;;;;;6124860;23;20383;-78
2022/04/08 09:57:17;;;;;;;4.97;3.30;;;19.30;48.60;;;;;;6124561;23;20379;-80
2022/04/08 09:59:47;;;;;;;4.87;3.30;;;19.50;46.70;;;;;;6122291;23;20376;-78
2022/04/08 10:02:24;;;;;;;10.45;9.50;;;19.60;46.40;;;;;;6122576;23;20403;-79
2022/04/08 10:05:03;;;;;;;5.20;3.33;;;19.70;46.80;;;;;;6119750;23;20375;-80
2022/04/08 10:07:31;;;;;;;3.85;3.28;;;20.10;47.10;;;;;;6117119;23;20409;-80
2022/04/08 10:10:19;;;;;;;8.00;4.68;;;19.60;45.40;;;;;;6121639;23;20856;-79
2022/04/08 10:13:14;;;;;;;3.53;3.20;;;19.30;45.80;;;;;;6118316;23;21042;-81
2022/04/08 10:15:44;;;;;;;5.93;5.32;;;19.50;47.30;;;;;;6121814;23;20391;-80
2022/04/08 10:18:11;;;;;;;3.13;2.78;;;19.90;46.50;;;;;;6143335;23;20383;-81
2022/04/08 10:20:38;;;;;;;3.88;2.90;;;20.30;44.70;;;;;;6117094;23;20438;-80
2022/04/08 10:23:09;;;;;;;;;;;20.40;44.40;;;;;;6124011;23;20081;-81
2022/04/08 10:25:36;;;;;;;;;;;20.60;44.40;;;;;;6126970;23;19941;-79
2022/04/08 10:28:03;;;;;;;;;;;20.40;44.10;;;;;;6132502;23;20250;-80
2022/04/08 10:30:32;;;;;;;;;;;20.10;42.90;;;;;;6123814;23;19916;-81
2022/04/08 10:33:03;;;;;;;;;;;19.90;44.00;;;;;;6122980;23;20365;-81
2022/04/08 10:35:30;;;;;;;;;;;19.70;44.10;;;;;;6123857;23;19917;-78
2022/04/08 10:38:01;;;;;;;;;;;19.80;45.10;;;;;;6125303;23;19920;-79
2022/04/08 10:40:29;;;;;;;;;;;19.60;43.60;;;;;;6127834;23;19921;-81
2022/04/08 10:43:03;;;;;;;;;;;19.40;43.50;;;;;;6129169;23;19940;-79
2022/04/08 10:45:30;;;;;;;;;;;19.40;44.70;;;;;;6128260;23;19916;-82
2022/04/08 10:48:02;;;;;;;;;;;19.70;43.90;;;;;;6125132;23;19921;-82
2022/04/08 10:50:30;;;;;;;;;;;19.50;44.20;;;;;;6127273;23;19917;-82
2022/04/08 10:53:04;;;;;;;;;;;19.80;43.10;;;;;;6130578;23;20278;-82
2022/04/08 10:55:31;;;;;;;;;;;20.10;44.30;;;;;;6136715;23;20104;-80
2022/04/08 10:57:58;;;;;;;;;;;20.60;44.70;;;;;;6125016;23;20025;-78
2022/04/08 11:00:25;;;;;;;;;;;21.00;40.70;;;;;;6130167;23;20364;-78
2022/04/08 11:02:53;;;;;;;;;;;21.00;40.50;;;;;;6125189;23;19921;-82
2022/04/08 11:05:23;;;;;;;;;;;21.10;42.00;;;;;;6130329;23;19936;-79
2022/04/08 11:07:51;;;;;;;;;;;21.30;42.00;;;;;;6124729;23;20531;-79
2022/04/08 11:10:19;;;;;;;;;;;21.80;40.50;;;;;;6130053;23;19924;-81
2022/04/08 11:12:50;;;;;;;;;;;21.80;39.60;;;;;;6125037;23;19925;-82
2022/04/08 11:15:18;;;;;;;;;;;22.20;39.80;;;;;;6126290;23;19917;-81
2022/04/08 11:17:46;;;;;;;;;;;22.30;37.90;;;;;;6150069;23;19920;-80
2022/04/08 11:20:13;;;;;;;;;;;22.50;38.30;;;;;;6130483;23;19917;-78
2022/04/08 11:22:52;;;;;;;;;;;22.70;37.40;;;;;;6128145;23;20361;-80
2022/04/08 11:25:25;;;;;;;;;;;23.00;37.30;;;;;;6136827;23;19907;-80
2022/04/08 11:28:02;;;;;;;;;;;22.90;37.20;;;;;;6132682;23;20789;-79
2022/04/08 11:30:30;;;;;;;;;;;22.70;37.00;;;;;;6125108;23;19968;-80
2022/04/08 11:32:57;;;;;;;;;;;22.70;37.50;;;;;;6130134;23;20341;-79
2022/04/08 11:35:28;;;;;;;;;;;22.80;36.40;;;;;;6131680;23;19921;-82
2022/04/08 11:37:55;;;;;;;;;;;22.80;36.90;;;;;;6129663;23;19971;-80
2022/04/08 11:40:22;;;;;;;;;;;22.60;37.10;;;;;;6134287;23;19920;-80
2022/04/08 11:42:49;;;;;;;;;;;22.30;37.70;;;;;;6135255;23;19920;-81
2022/04/08 11:45:16;;;;;;;;;;;22.50;37.90;;;;;;6124959;23;19917;-82
2022/04/08 11:47:46;;;;;;;;;;;22.60;38.50;;;;;;6129049;23;20356;-81
2022/04/08 11:50:23;;;;;;;;;;;22.70;37.20;;;;;;6137601;23;19944;-80
2022/04/08 11:52:53;;;;;;;;;;;22.80;36.80;;;;;;6134969;23;19928;-79
2022/04/08 11:55:24;;;;;;;;;;;23.00;36.20;;;;;;6138415;23;19968;-79
2022/04/08 11:57:52;;;;;;;;;;;23.10;36.10;;;;;;6125418;23;19984;-80
2022/04/08 12:00:26;;;;;;;;;;;23.40;36.60;;;;;;6131832;23;19944;-82
2022/04/08 12:02:57;;;;;;;;;;;23.40;36.30;;;;;;6126119;23;19917;-80
2022/04/08 12:05:25;;;;;;;;;;;23.50;37.50;;;;;;6132354;23;19931;-80
2022/04/08 12:08:01;;;;;;;;;;;23.90;37.10;;;;;;6128349;23;19908;-81
2022/04/08 12:10:28;;;;;;;;;;;22.80;35.00;;;;;;6124298;23;19971;-81
2022/04/08 12:12:55;;;;;;;;;;;22.50;36.30;;;;;;6134234;23;19917;-80
2022/04/08 12:15:22;;;;;;;;;;;22.30;38.80;;;;;;6125422;23;19921;-81
2022/04/08 12:17:50;;;;;;;;;;;22.70;37.20;;;;;;6127744;23;19928;-79
2022/04/08 12:20:18;;;;;;;;;;;23.10;37.10;;;;;;6131736;23;19924;-80
2022/04/08 21:27:07;;;;;;;;;;;16.70;38.80;;;;;;6112773;23;19901;-78
2022/04/08 21:29:36;;;;;;;;;;;16.70;39.10;;;;;;6151510;23;19973;-79
2022/04/08 21:32:03;;;;;;;;;;;16.60;40.00;;;;;;6126908;23;19916;-80
2022/04/08 21:34:30;;;;;;;;;;;16.50;39.00;;;;;;6139143;23;19924;-80
2022/04/08 21:36:57;;;;;;;;;;;16.40;39.80;;;;;;6107303;23;19917;-81
2022/04/08 21:39:23;;;;;;;;;;;16.30;39.80;;;;;;6121279;23;19967;-81
2022/04/08 21:41:50;;;;;;;;;;;16.20;40.00;;;;;;6128020;23;19963;-78
2022/04/08 21:44:17;;;;;;;;;;;16.20;40.40;;;;;;6128913;23;19917;-80
2022/04/08 21:46:44;;;;;;;;;;;16.10;40.50;;;;;;6128238;23;19916;-78
2022/04/08 21:49:12;;;;;;;;;;;16.20;40.40;;;;;;6139438;23;19927;-81
2022/04/08 21:51:39;;;;;;;;;;;16.10;40.10;;;;;;6131942;23;20102;-80
2022/04/08 21:54:06;;;;;;;;;;;16.10;40.40;;;;;;6128607;23;19917;-80
2022/04/08 21:56:32;;;;;;;;;;;16.10;40.50;;;;;;6157998;23;19921;-81
2022/04/08 21:58:59;;;;;;;;;;;16.10;40.70;;;;;;6127366;23;20353;-81
2022/04/08 22:01:26;;;;;;;;;;;16.10;40.30;;;;;;6157528;23;20330;-77
2022/04/08 22:03:53;;;;;;;;;;;16.20;40.40;;;;;;6157759;23;19946;-78
2022/04/08 22:06:20;;;;;;;;;;;16.20;40.10;;;;;;6126611;23;19920;-80
2022/04/08 22:08:46;;;;;;;;;;;16.20;40.50;;;;;;6128717;23;19917;-80
2022/04/08 22:11:13;;;;;;;;;;;16.10;40.60;;;;;;6134165;23;19916;-80
2022/04/08 22:13:41;;;;;;;;;;;16.00;40.40;;;;;;6128353;23;19916;-81
2022/04/08 22:16:07;;;;;;;;;;;16.20;40.10;;;;;;6158057;23;19900;-81
2022/04/08 22:18:34;;;;;;;;;;;16.10;40.90;;;;;;6128750;23;19928;-81
2022/04/08 22:21:01;;;;;;;;;;;15.90;40.90;;;;;;6134869;23;19924;-80
2022/04/08 22:23:28;;;;;;;;;;;16.00;40.60;;;;;;6133348;23;19967;-76
2022/04/08 22:25:54;;;;;;;;;;;16.00;40.60;;;;;;6129669;23;19920;-80
2022/04/08 22:28:21;;;;;;;;;;;16.10;40.40;;;;;;6133174;23;20622;-81
2022/04/08 22:30:48;;;;;;;;;;;16.10;40.10;;;;;;6154185;23;20396;-77
2022/04/08 22:33:15;;;;;;;;;;;16.10;40.10;;;;;;6135017;23;19963;-77
2022/04/08 22:35:42;;;;;;;;;;;16.00;40.30;;;;;;6130463;23;19921;-77
2022/04/08 22:38:09;;;;;;;;;;;16.10;40.60;;;;;;6128028;23;19927;-80
2022/04/08 22:40:36;;;;;;;;;;;16.00;40.60;;;;;;6130228;23;20293;-77
2022/04/08 22:43:03;;;;;;;;;;;15.90;40.80;;;;;;6133324;23;19939;-81
2022/04/08 22:45:30;;;;;;;;;;;15.90;41.30;;;;;;6133703;23;19924;-80
2022/04/08 22:47:57;;;;;;;;;;;15.80;41.10;;;;;;6106325;23;19967;-80
2022/04/08 22:50:24;;;;;;;;;;;15.80;41.20;;;;;;6128854;23;19921;-77
2022/04/08 22:52:50;;;;;;;;;;;15.80;41.00;;;;;;6155689;23;19916;-80
2022/04/08 22:55:18;;;;;;;0.30;0.10;;;15.90;40.60;;;;;;6106695;23;20345;-80
2022/04/08 22:57:45;;;;;;;1.10;0.10;;;16.00;40.60;;;;;;6132095;23;20417;-80
2022/04/08 23:00:12;;;;;;;0.10;0.05;;;15.90;40.90;;;;;;6152655;23;20382;-78
2022/04/08 23:02:40;;;;;;;0.70;0.10;;;15.80;41.10;;;;;;6128655;23;20897;-81
2022/04/08 23:05:09;;;;;;;0.47;0.10;;;15.70;41.20;;;;;;6128742;23;20770;-80
2022/04/08 23:07:36;;;;;;;0.20;0.10;;;15.70;41.20;;;;;;6130258;23;20389;-80
2022/04/08 23:10:04;;;;;;;0.40;0.10;;;15.70;41.20;;;;;;6129300;23;20384;-77
2022/04/08 23:12:31;;;;;;;0.90;0.10;;;15.60;41.40;;;;;;6156896;23;20730;-77
2022/04/08 23:14:58;;;;;;;0.20;0.10;;;15.50;41.90;;;;;;6132473;23;20385;-77
2022/04/08 23:17:26;;;;;;;0.20;0.05;;;15.50;41.50;;;;;;6127083;23;20374;-76
2022/04/08 23:19:53;;;;;;;0.65;0.05;;;15.40;41.40;;;;;;6132457;23;20446;-80